Sarona, WI (54870)

9:36 PM CST on November 28, 2014 (GMT -0600)
Shell Lake | Change Station
CLOSE
Current Station
Personal Weather Station
Location: Shell Lake, WI
Elevation: 1230 ft
Nearby Weather Stations

Elev 1230 ft 45.72 °N, 91.89 °W | Updated 6 seconds ago

Overcast
Overcast
18.4 °F
Feels Like 18 °F
N
0.0
Wind Variable Wind from North
Gusts 0.0 mph

Today
High -- | Low -- °F
--% Chance of Precip.
Yesterday
High -- | Low -- °F
Precip. -- in
7:23 AM 4:25 PM
Waxing Crescent, 47% visible
Pressure 29.78 in
Visibility 10.0 miles
Clouds Scattered Clouds 1900 ft
Mostly Cloudy 3500 ft
Overcast 12000 ft
Windchill 18 °F
Dew Point 14 °F
Humidity 83%
Rainfall 0.00 in
Snow Depth Not available.
UV 0 out of 12
Pollen .10 out of 12
Air Quality Not available.
Flu Activity Not available.
METAR KUBE 290315Z AUTO 13008KT 10SM SCT019 BKN035 OVC120 M07/M10 A2978 RMK AO2

More Conditions Fewer Conditions

Pressure 29.78 in
Visibility 10.0 miles
Clouds Scattered Clouds 1900 ft
Mostly Cloudy 3500 ft
Overcast 12000 ft
Windchill 18 °F
Dew Point 14 °F
Humidity 83%
Rainfall 0.00 in
Snow Depth Not available.
UV 0 out of 12
Pollen .10 out of 12
Air Quality Not available.
Flu Activity Not available.
METAR KUBE 290315Z AUTO 13008KT 10SM SCT019 BKN035 OVC120 M07/M10 A2978 RMK AO2

More Conditions Fewer Conditions

10-Day Weather Forecast

Almanac

Astronomy

Nov. 28, 2014 Rise Set
Actual Time
Civil Twilight
Nautical Twilight
Astronomical Twilight
Moon
Length of Visible Light
Length of Day
Tomorrow will be .
, % of the Moon is Illuminated

Today's Extremes

State Highs State Lows

Community

WunderPhotos

Upload Photos

1,774,385 photos uploaded!

WunderBlogs® & News

Nearby

Air Quality

  Air Quality AQ Index Pollutant
Not available.

Snow Depth

Station Depth Elevation

Earthquake Activity

City Distance Mag. Time & Date
Minimum magnitude displayed is 2.5.

Coastal Water Temperatures

Place Temperature

Nearby Weather Stations